createdAt,value
2018-08-07T00:00:17.582Z,24.63
2018-08-07T00:02:14.836Z,24.37
2018-08-07T00:03:14.843Z,24.33
2018-08-07T00:05:16.000Z,24.36
2018-08-07T00:06:16.016Z,24.30
2018-08-07T00:08:14.005Z,24.32
2018-08-07T00:09:13.987Z,24.30
2018-08-07T00:11:12.864Z,24.15
2018-08-07T00:12:11.944Z,24.09
2018-08-07T00:14:10.909Z,24.18
2018-08-07T00:15:10.889Z,24.24
2018-08-07T00:17:12.047Z,24.51
2018-08-07T00:18:10.551Z,24.52
2018-08-07T00:20:08.525Z,24.49
2018-08-07T00:21:09.003Z,24.46
2018-08-07T00:23:06.488Z,24.40
2018-08-07T00:24:06.959Z,24.40
2018-08-07T00:26:06.421Z,24.21
2018-08-07T00:27:04.427Z,24.11
2018-08-07T00:29:03.404Z,23.87
2018-08-07T00:30:02.373Z,23.82
2018-08-07T00:32:00.414Z,23.82
2018-08-07T00:33:00.311Z,23.87
2018-08-07T00:34:58.471Z,23.71
2018-08-07T00:35:59.259Z,23.72
2018-08-07T00:37:57.487Z,23.75
2018-08-07T00:38:56.436Z,23.75
2018-08-07T00:40:54.894Z,23.71
2018-08-07T00:41:54.903Z,23.85
2018-08-07T00:43:54.865Z,23.78
2018-08-07T00:44:55.767Z,23.78
2018-08-07T00:46:53.323Z,23.75
2018-08-07T00:47:53.333Z,23.66
2018-08-07T00:49:52.269Z,23.74
2018-08-07T00:50:50.987Z,23.63
2018-08-07T00:52:49.835Z,23.63
2018-08-07T00:53:48.905Z,23.66
2018-08-07T00:55:47.357Z,23.48
2018-08-07T00:56:46.825Z,23.45
2018-08-07T00:58:45.832Z,23.40
2018-08-07T00:59:44.984Z,23.42
2018-08-07T01:01:42.954Z,23.72
2018-08-07T01:02:43.474Z,23.85
2018-08-07T01:04:41.887Z,23.89
2018-08-07T01:05:41.134Z,23.89
2018-08-07T01:07:41.546Z,23.81
2018-08-07T01:08:41.550Z,23.82
2018-08-07T01:10:40.535Z,23.70
2018-08-07T01:11:40.447Z,23.63
2018-08-07T01:13:38.032Z,23.45
2018-08-07T01:14:37.517Z,23.45
2018-08-07T01:16:35.493Z,23.29
2018-08-07T01:17:35.479Z,23.18
2018-08-07T01:19:33.648Z,23.09
2018-08-07T01:20:33.616Z,23.09
2018-08-07T01:22:32.055Z,22.96
2018-08-07T01:23:32.555Z,22.88
2018-08-07T01:25:30.587Z,22.96
2018-08-07T01:26:30.460Z,22.99
2018-08-07T01:28:27.480Z,22.85
2018-08-07T01:29:27.459Z,22.84
2018-08-07T01:31:25.507Z,22.86
2018-08-07T01:32:26.433Z,22.84
2018-08-07T01:34:24.384Z,22.86
2018-08-07T01:35:23.915Z,22.85
2018-08-07T01:37:21.397Z,22.86
2018-08-07T01:38:22.337Z,22.88
2018-08-07T01:40:19.325Z,22.84
2018-08-07T01:41:19.296Z,22.89
2018-08-07T01:43:18.265Z,22.88
2018-08-07T01:44:18.260Z,22.96
2018-08-07T01:46:15.596Z,22.79
2018-08-07T01:47:15.587Z,22.82
2018-08-07T01:49:13.550Z,22.78
2018-08-07T01:50:13.541Z,22.81
2018-08-07T01:52:12.476Z,22.84
2018-08-07T01:53:11.665Z,22.66
2018-08-07T01:55:09.580Z,22.71
2018-08-07T01:56:09.589Z,22.64
2018-08-07T01:58:06.556Z,22.59
2018-08-07T02:00:24.679Z,22.63
2018-08-07T02:01:25.529Z,22.59
2018-08-07T02:03:22.140Z,22.73
2018-08-07T02:04:20.710Z,22.71
2018-08-07T02:06:17.606Z,22.55
2018-08-07T02:07:16.609Z,22.59
2018-08-07T02:09:16.565Z,22.57
2018-08-07T02:10:14.719Z,22.61
2018-08-07T02:12:12.704Z,22.67
2018-08-07T02:13:12.675Z,22.81
2018-08-07T02:15:11.656Z,22.94
2018-08-07T02:16:11.141Z,23.00
2018-08-07T02:18:08.586Z,23.32
2018-08-07T02:19:08.576Z,23.34
2018-08-07T02:21:05.077Z,23.55
2018-08-07T02:22:05.041Z,23.67
2018-08-07T02:24:02.644Z,23.63
2018-08-07T02:25:03.511Z,23.53
2018-08-07T02:27:01.116Z,23.42
2018-08-07T02:28:00.771Z,23.35
2018-08-07T02:29:58.757Z,23.37
2018-08-07T02:30:59.726Z,23.45
2018-08-07T02:32:56.911Z,23.67
2018-08-07T02:33:56.885Z,23.74
2018-08-07T02:35:54.839Z,23.81
2018-08-07T02:36:54.807Z,23.82
2018-08-07T02:38:53.260Z,23.87
2018-08-07T02:39:52.758Z,23.79
2018-08-07T02:41:52.222Z,23.82
2018-08-07T02:42:51.716Z,23.84
2018-08-07T02:44:48.835Z,23.84
2018-08-07T02:45:50.368Z,23.74
2018-08-07T02:47:46.823Z,23.67
2018-08-07T02:48:46.824Z,23.62
2018-08-07T02:50:45.760Z,23.59
2018-08-07T02:51:44.757Z,23.62
2018-08-07T02:53:42.930Z,23.74
2018-08-07T02:54:42.916Z,23.72
2018-08-07T02:56:40.883Z,23.75
2018-08-07T02:57:40.845Z,23.84
2018-08-07T02:59:39.846Z,23.74
2018-08-07T03:00:38.836Z,23.63
2018-08-07T03:02:36.808Z,23.57
2018-08-07T03:03:36.804Z,23.52
2018-08-07T03:05:37.266Z,23.42
2018-08-07T03:06:37.215Z,23.45
2018-08-07T03:08:33.680Z,23.37
2018-08-07T03:09:33.738Z,23.25
2018-08-07T03:11:30.131Z,23.26
2018-08-07T03:12:29.660Z,23.29
2018-08-07T03:14:25.065Z,23.41
2018-08-07T03:15:25.111Z,23.40
2018-08-07T03:17:23.046Z,23.40
2018-08-07T03:18:24.064Z,23.40
2018-08-07T03:20:22.518Z,23.12
2018-08-07T03:21:22.013Z,23.06
2018-08-07T03:23:20.660Z,23.01
2018-08-07T03:24:20.143Z,22.97
2018-08-07T03:26:16.275Z,22.82
2018-08-07T03:27:15.301Z,22.78
2018-08-07T03:29:12.270Z,22.70
2018-08-07T03:30:12.207Z,22.69
2018-08-07T03:32:07.689Z,22.70
2018-08-07T03:33:07.211Z,22.67
2018-08-07T03:35:05.139Z,22.60
2018-08-07T03:36:04.651Z,22.64
2018-08-07T03:38:00.113Z,22.64
2018-08-07T03:39:00.077Z,22.76
2018-08-07T03:40:56.569Z,22.85
2018-08-07T03:41:56.547Z,22.64
2018-08-07T03:43:52.001Z,22.51
2018-08-07T03:44:52.043Z,22.39
2018-08-07T03:46:47.988Z,22.38
2018-08-07T03:47:47.965Z,22.36
2018-08-07T03:49:46.934Z,22.48
2018-08-07T03:50:46.919Z,22.33
2018-08-07T03:52:45.535Z,22.26
2018-08-07T03:53:44.051Z,22.18
2018-08-07T03:55:42.528Z,22.11
2018-08-07T03:56:42.156Z,22.09
2018-08-07T03:58:40.236Z,22.27
2018-08-07T03:59:40.090Z,22.34
2018-08-07T04:01:38.068Z,22.55
2018-08-07T04:02:38.070Z,22.49
2018-08-07T04:04:36.030Z,22.27
2018-08-07T04:05:37.535Z,22.31
2018-08-07T04:07:34.009Z,22.24
2018-08-07T04:08:33.976Z,22.23
2018-08-07T04:10:32.078Z,22.31
2018-08-07T04:11:32.110Z,22.44
2018-08-07T04:13:31.044Z,22.61
2018-08-07T04:14:30.217Z,22.60
2018-08-07T04:16:28.186Z,22.63
2018-08-07T04:17:28.179Z,22.63
2018-08-07T04:19:27.637Z,22.66
2018-08-07T04:20:26.367Z,22.67
2018-08-07T04:22:26.791Z,22.81
2018-08-07T04:23:27.286Z,22.82
2018-08-07T04:25:26.242Z,22.81
2018-08-07T04:26:25.751Z,22.81
2018-08-07T04:28:23.008Z,22.86
2018-08-07T04:29:23.007Z,22.75
2018-08-07T04:31:20.000Z,22.73
2018-08-07T04:32:19.963Z,22.71
2018-08-07T04:34:18.449Z,22.63
2018-08-07T04:35:18.101Z,22.52
2018-08-07T04:37:15.529Z,22.51
2018-08-07T04:38:14.546Z,22.48
2018-08-07T04:40:10.080Z,22.63
2018-08-07T04:41:10.005Z,22.82
2018-08-07T04:43:06.467Z,23.00
2018-08-07T04:44:05.948Z,23.06
2018-08-07T04:46:01.879Z,23.24
2018-08-07T04:47:01.923Z,23.22
2018-08-07T04:48:58.865Z,23.25
2018-08-07T04:49:58.931Z,23.25
2018-08-07T04:51:56.410Z,23.26
2018-08-07T04:52:56.040Z,23.21
2018-08-07T04:54:52.508Z,23.25
2018-08-07T04:55:52.030Z,23.35
2018-08-07T04:57:48.468Z,23.48
2018-08-07T04:58:47.971Z,23.55
2018-08-07T05:00:45.921Z,23.74
2018-08-07T05:01:45.935Z,23.79
2018-08-07T05:03:44.406Z,24.12
2018-08-07T05:04:45.885Z,24.27
2018-08-07T05:06:43.024Z,24.52
2018-08-07T05:07:42.194Z,24.55
2018-08-07T05:09:38.158Z,24.63
2018-08-07T05:10:38.213Z,24.75
2018-08-07T05:12:34.634Z,24.92
2018-08-07T05:13:34.633Z,25.04
2018-08-07T05:15:30.122Z,25.14
2018-08-07T05:16:30.604Z,25.15
2018-08-07T05:18:28.205Z,25.32
2018-08-07T05:19:29.058Z,25.45
2018-08-07T05:21:25.151Z,25.48
2018-08-07T05:22:24.697Z,25.38
2018-08-07T05:24:20.145Z,25.47
2018-08-07T05:25:20.626Z,25.48
2018-08-07T05:27:16.062Z,25.62
2018-08-07T05:28:16.056Z,25.57
2018-08-07T05:30:12.043Z,25.75
2018-08-07T05:31:12.018Z,25.82
2018-08-07T05:33:08.486Z,26.00
2018-08-07T05:34:08.475Z,25.94
2018-08-07T05:36:03.952Z,26.03
2018-08-07T05:37:04.439Z,26.16
2018-08-07T05:39:00.395Z,26.19
2018-08-07T05:40:00.401Z,26.35
2018-08-07T05:41:57.857Z,26.38
2018-08-07T05:42:58.349Z,26.42
2018-08-07T05:44:54.865Z,26.56
2018-08-07T05:45:54.828Z,26.63
2018-08-07T05:47:49.820Z,26.64
2018-08-07T05:48:49.825Z,26.63
2018-08-07T05:50:46.049Z,26.81
2018-08-07T05:51:46.288Z,26.72
2018-08-07T05:53:42.241Z,26.79
2018-08-07T05:54:41.729Z,26.82
2018-08-07T05:56:40.736Z,26.86
2018-08-07T05:57:39.723Z,26.81
2018-08-07T05:59:38.194Z,26.99
2018-08-07T06:00:38.176Z,26.90
2018-08-07T06:02:35.636Z,26.76
2018-08-07T06:03:36.133Z,26.76
2018-08-07T06:05:34.600Z,26.68
2018-08-07T06:06:34.091Z,26.75
2018-08-07T06:08:31.692Z,26.87
2018-08-07T06:09:32.543Z,26.79
2018-08-07T06:11:27.743Z,26.78
2018-08-07T06:12:27.681Z,26.93
2018-08-07T06:14:25.632Z,26.94
2018-08-07T06:15:25.645Z,26.86
2018-08-07T06:17:26.156Z,27.01
2018-08-07T06:18:27.632Z,27.04
2018-08-07T06:20:24.588Z,26.97
2018-08-07T06:21:25.079Z,26.96
2018-08-07T06:23:22.683Z,27.18
2018-08-07T06:24:22.258Z,27.06
2018-08-07T06:26:22.257Z,27.11
2018-08-07T06:27:21.229Z,27.18
2018-08-07T06:29:17.692Z,27.13
2018-08-07T06:30:17.179Z,27.23
2018-08-07T06:32:16.191Z,27.24
2018-08-07T06:33:17.144Z,27.28
2018-08-07T06:35:11.154Z,27.27
2018-08-07T06:36:11.138Z,27.31
2018-08-07T06:38:10.592Z,27.27
2018-08-07T06:39:09.068Z,27.33
2018-08-07T06:41:05.046Z,27.34
2018-08-07T06:42:05.546Z,27.38
2018-08-07T06:44:04.047Z,27.41
2018-08-07T06:45:03.197Z,27.28
2018-08-07T06:46:58.180Z,27.30
2018-08-07T06:47:57.760Z,27.27
2018-08-07T06:49:55.682Z,27.38
2018-08-07T06:50:55.659Z,27.38
2018-08-07T06:52:53.110Z,27.48
2018-08-07T06:53:52.152Z,27.45
2018-08-07T06:55:46.075Z,27.46
2018-08-07T06:56:46.071Z,27.38
2018-08-07T06:58:42.061Z,27.59
2018-08-07T06:59:42.048Z,27.51
2018-08-07T07:01:40.044Z,27.52
2018-08-07T07:02:40.041Z,27.52
2018-08-07T07:04:35.935Z,27.49
2018-08-07T07:05:35.007Z,27.57
2018-08-07T07:07:31.001Z,27.61
2018-08-07T07:08:30.963Z,27.69
2018-08-07T07:10:30.958Z,27.80
2018-08-07T07:11:29.120Z,27.90
2018-08-07T07:13:28.077Z,27.90
2018-08-07T07:14:27.456Z,27.87
2018-08-07T07:16:23.906Z,27.90
2018-08-07T07:17:23.915Z,27.84
2018-08-07T07:19:19.409Z,27.93
2018-08-07T07:20:20.300Z,27.94
2018-08-07T07:22:16.349Z,27.99
2018-08-07T07:23:15.448Z,28.09
2018-08-07T07:25:11.411Z,28.08
2018-08-07T07:26:11.416Z,28.09
2018-08-07T07:28:07.869Z,28.17
2018-08-07T07:29:07.886Z,28.21
2018-08-07T07:31:03.429Z,28.38
2018-08-07T07:32:04.337Z,28.41
2018-08-07T07:33:59.332Z,28.31
2018-08-07T07:36:29.306Z,28.38
2018-08-07T07:37:29.157Z,28.31
2018-08-07T07:39:27.082Z,28.43
2018-08-07T07:40:27.112Z,28.49
2018-08-07T07:42:23.579Z,28.45
2018-08-07T07:43:23.086Z,28.57
2018-08-07T07:45:20.044Z,28.61
2018-08-07T07:46:19.548Z,28.55
2018-08-07T07:48:15.540Z,28.72
2018-08-07T07:49:15.074Z,28.75
2018-08-07T07:51:12.038Z,28.75
2018-08-07T07:52:11.100Z,28.73
2018-08-07T07:54:09.094Z,28.83
2018-08-07T07:55:09.076Z,28.88
2018-08-07T07:57:05.078Z,28.95
2018-08-07T07:58:05.039Z,28.97
2018-08-07T08:01:02.001Z,29.10
2018-08-07T08:03:21.990Z,28.98
2018-08-07T08:03:57.523Z,29.02
2018-08-07T08:05:53.977Z,29.10
2018-08-07T08:09:21.418Z,29.17
2018-08-07T08:09:48.918Z,29.20
2018-08-07T08:11:45.882Z,29.28
2018-08-07T08:12:44.886Z,29.23
2018-08-07T08:14:40.841Z,29.30
2018-08-07T08:15:40.854Z,29.38
2018-08-07T08:17:36.835Z,29.30
2018-08-07T08:18:36.827Z,29.40
2018-08-07T08:20:32.799Z,29.45
2018-08-07T08:21:32.827Z,29.52
2018-08-07T08:23:28.792Z,29.65
2018-08-07T08:24:28.801Z,29.67
2018-08-07T08:26:24.808Z,29.84
2018-08-07T08:27:25.258Z,29.98
2018-08-07T08:29:21.180Z,30.18
2018-08-07T08:30:20.715Z,30.24
2018-08-07T08:32:15.190Z,30.54
2018-08-07T08:33:16.212Z,30.60
2018-08-07T08:35:11.114Z,30.71
2018-08-07T08:36:11.129Z,30.84
2018-08-07T08:38:07.103Z,30.82
2018-08-07T08:39:07.098Z,30.97
2018-08-07T08:41:00.635Z,30.97
2018-08-07T08:42:01.944Z,30.88
2018-08-07T08:44:03.211Z,30.89
2018-08-07T08:45:05.118Z,30.89
2018-08-07T08:47:00.068Z,31.16
2018-08-07T08:47:59.191Z,31.18
2018-08-07T08:49:55.795Z,31.31
2018-08-07T08:50:55.164Z,31.41
2018-08-07T08:52:51.133Z,31.56
2018-08-07T08:53:51.121Z,31.63
2018-08-07T08:55:46.601Z,31.62
2018-08-07T08:56:45.623Z,31.70
2018-08-07T08:58:42.099Z,31.80
2018-08-07T08:59:41.597Z,31.94
2018-08-07T09:01:38.549Z,31.98
2018-08-07T09:02:37.567Z,31.88
2018-08-07T09:04:34.052Z,31.87
2018-08-07T09:05:33.557Z,32.01
2018-08-07T09:07:30.040Z,32.00
2018-08-07T09:08:30.519Z,32.10
2018-08-07T09:10:25.660Z,32.23
2018-08-07T09:11:25.571Z,32.17
2018-08-07T09:13:19.988Z,32.16
2018-08-07T09:14:20.094Z,32.32
2018-08-07T09:16:14.559Z,32.09
2018-08-07T09:17:14.502Z,32.16
2018-08-07T09:19:10.959Z,32.17
2018-08-07T09:20:08.975Z,32.37
2018-08-07T09:22:05.042Z,32.43
2018-08-07T09:23:04.995Z,32.45
2018-08-07T09:25:01.029Z,32.67
2018-08-07T09:26:01.542Z,32.76
2018-08-07T09:27:54.417Z,32.91
2018-08-07T09:28:54.412Z,32.94
2018-08-07T09:30:50.877Z,33.02
2018-08-07T09:31:50.417Z,33.18
2018-08-07T09:33:49.344Z,33.37
2018-08-07T09:34:48.393Z,33.32
2018-08-07T09:36:44.831Z,33.47
2018-08-07T09:37:43.126Z,33.48
2018-08-07T09:39:39.449Z,33.47
2018-08-07T09:40:39.903Z,33.47
2018-08-07T09:42:33.751Z,33.66
2018-08-07T09:43:34.247Z,33.61
2018-08-07T09:45:31.732Z,33.78
2018-08-07T09:46:31.739Z,33.77
2018-08-07T09:48:26.321Z,33.93
2018-08-07T09:49:26.955Z,33.96
2018-08-07T09:51:21.140Z,33.99
2018-08-07T09:52:21.712Z,33.93
2018-08-07T09:54:16.656Z,33.77
2018-08-07T09:55:16.675Z,33.77
2018-08-07T09:57:12.643Z,33.83
2018-08-07T09:58:11.757Z,33.74
2018-08-07T10:00:06.721Z,33.77
2018-08-07T10:01:06.232Z,33.81
2018-08-07T10:03:02.694Z,34.03
2018-08-07T10:04:02.187Z,34.03
2018-08-07T10:05:59.166Z,34.21
2018-08-07T10:06:58.141Z,34.18
2018-08-07T10:08:56.143Z,34.30
2018-08-07T10:09:56.144Z,34.37
2018-08-07T10:11:52.499Z,34.51
2018-08-07T10:12:53.121Z,34.49
2018-08-07T10:14:48.630Z,34.40
2018-08-07T10:15:48.134Z,34.34
2018-08-07T10:17:42.629Z,34.15
2018-08-07T10:18:42.633Z,34.15
2018-08-07T10:20:38.089Z,34.29
2018-08-07T10:21:37.334Z,34.40
2018-08-07T10:23:30.558Z,34.52
2018-08-07T10:24:30.575Z,34.56
2018-08-07T10:26:25.560Z,34.54
2018-08-07T10:27:25.041Z,34.58
2018-08-07T10:29:19.527Z,34.67
2018-08-07T10:30:19.523Z,34.63
2018-08-07T10:32:13.499Z,34.84
2018-08-07T10:33:13.281Z,34.93
2018-08-07T10:35:12.258Z,35.09
2018-08-07T10:36:09.297Z,35.06
2018-08-07T10:38:06.260Z,35.16
2018-08-07T10:39:05.307Z,35.23
2018-08-07T10:40:59.299Z,35.18
2018-08-07T10:41:59.318Z,35.18
2018-08-07T10:43:52.912Z,35.12
2018-08-07T10:44:53.013Z,35.06
2018-08-07T10:49:06.997Z,34.89
2018-08-07T10:50:03.886Z,34.90
2018-08-07T10:51:59.853Z,35.01
2018-08-07T10:53:00.848Z,35.02
2018-08-07T10:54:57.844Z,35.24
2018-08-07T10:55:55.856Z,35.23
2018-08-07T10:57:51.802Z,35.27
2018-08-07T10:58:52.348Z,35.21
2018-08-07T11:00:46.325Z,35.13
2018-08-07T11:01:46.139Z,35.18
2018-08-07T11:03:44.621Z,35.12
2018-08-07T11:04:44.121Z,35.12
2018-08-07T11:06:49.858Z,35.26
2018-08-07T11:09:07.202Z,35.43
2018-08-07T11:09:59.209Z,35.53
2018-08-07T11:11:53.025Z,35.68
2018-08-07T11:12:53.049Z,35.76
2018-08-07T11:14:50.502Z,35.80
2018-08-07T11:15:49.018Z,35.67
2018-08-07T11:17:45.016Z,35.64
2018-08-07T11:18:44.988Z,35.67
2018-08-07T11:20:39.468Z,35.74
2018-08-07T11:21:39.969Z,35.86
2018-08-07T11:23:36.362Z,35.92
2018-08-07T11:24:35.502Z,36.02
2018-08-07T11:26:31.439Z,35.99
2018-08-07T11:27:31.465Z,35.95
2018-08-07T11:29:27.415Z,35.99
2018-08-07T11:30:27.445Z,35.87
2018-08-07T11:32:20.917Z,35.83
2018-08-07T11:33:21.909Z,35.84
2018-08-07T11:35:16.843Z,35.89
2018-08-07T11:36:16.870Z,35.96
2018-08-07T11:38:11.348Z,36.02
2018-08-07T11:39:12.346Z,35.99
2018-08-07T11:41:07.343Z,35.95
2018-08-07T11:42:07.344Z,35.87
2018-08-07T11:44:03.330Z,36.02
2018-08-07T11:45:04.308Z,36.05
2018-08-07T11:47:01.286Z,36.21
2018-08-07T11:47:59.870Z,36.22
2018-08-07T11:49:55.287Z,36.24
2018-08-07T11:50:55.291Z,36.33
2018-08-07T11:52:48.761Z,36.44
2018-08-07T11:53:48.777Z,36.40
2018-08-07T11:55:43.198Z,36.34
2018-08-07T11:56:43.752Z,36.33
2018-08-07T11:58:41.139Z,36.28
2018-08-07T11:59:39.221Z,36.21
2018-08-07T12:01:35.215Z,36.08
2018-08-07T12:02:35.197Z,36.18
2018-08-07T12:04:31.672Z,36.02
2018-08-07T12:05:30.665Z,36.01
2018-08-07T12:07:25.647Z,35.92
2018-08-07T12:08:25.690Z,36.04
2018-08-07T12:10:20.136Z,36.15
2018-08-07T12:11:20.155Z,36.22
2018-08-07T12:13:16.121Z,36.34
2018-08-07T12:14:16.635Z,36.33
2018-08-07T12:16:12.615Z,36.32
2018-08-07T12:17:12.116Z,36.39
2018-08-07T12:19:08.076Z,36.26
2018-08-07T12:20:09.076Z,36.22
2018-08-07T12:22:02.535Z,36.28
2018-08-07T12:23:03.553Z,36.25
2018-08-07T12:24:58.561Z,36.33
2018-08-07T12:25:58.528Z,36.37
2018-08-07T12:27:53.006Z,36.32
2018-08-07T12:28:53.483Z,36.43
2018-08-07T12:30:48.967Z,36.55
2018-08-07T12:31:48.955Z,36.59
2018-08-07T12:33:43.934Z,36.58
2018-08-07T12:34:43.442Z,36.44
2018-08-07T12:36:39.447Z,36.46
2018-08-07T12:37:39.920Z,36.44
2018-08-07T12:39:35.907Z,36.46
2018-08-07T12:40:35.402Z,36.30
2018-08-07T12:42:31.367Z,36.34
2018-08-07T12:43:31.380Z,36.36
2018-08-07T12:45:29.313Z,36.39
2018-08-07T12:46:30.809Z,36.44
2018-08-07T12:48:25.317Z,36.19
2018-08-07T12:49:25.298Z,36.21
2018-08-07T12:51:18.771Z,36.08
2018-08-07T12:52:19.776Z,36.15
2018-08-07T12:54:13.248Z,36.32
2018-08-07T12:55:14.188Z,36.37
2018-08-07T12:57:09.232Z,36.25
2018-08-07T12:58:09.240Z,36.39
2018-08-07T13:00:05.202Z,36.75
2018-08-07T13:01:06.717Z,36.65
2018-08-07T13:02:59.682Z,36.71
2018-08-07T13:03:59.779Z,36.59
2018-08-07T13:05:54.171Z,36.80
2018-08-07T13:06:54.242Z,36.77
2018-08-07T13:08:50.140Z,36.78
2018-08-07T13:09:51.119Z,36.80
2018-08-07T13:11:46.136Z,36.80
2018-08-07T13:12:46.145Z,36.77
2018-08-07T13:14:42.612Z,36.71
2018-08-07T13:15:42.139Z,36.74
2018-08-07T13:17:36.683Z,36.84
2018-08-07T13:18:36.627Z,36.88
2018-08-07T13:20:30.624Z,36.71
2018-08-07T13:21:30.140Z,36.65
2018-08-07T13:23:25.622Z,36.70
2018-08-07T13:24:25.626Z,36.65
2018-08-07T13:26:18.070Z,36.65
2018-08-07T13:27:18.111Z,36.67
2018-08-07T13:29:14.097Z,36.61
2018-08-07T13:30:14.069Z,36.71
2018-08-07T13:32:11.053Z,36.55
2018-08-07T13:33:10.090Z,36.53
2018-08-07T13:35:06.558Z,36.71
2018-08-07T13:36:06.032Z,36.68
2018-08-07T13:38:00.500Z,36.70
2018-08-07T13:39:00.497Z,36.63
2018-08-07T13:40:54.976Z,36.75
2018-08-07T13:41:54.995Z,36.93
2018-08-07T13:43:51.496Z,37.00
2018-08-07T13:44:51.012Z,36.95
2018-08-07T13:46:46.986Z,36.99
2018-08-07T13:47:46.998Z,36.97
2018-08-07T13:49:43.508Z,37.11
2018-08-07T13:50:42.986Z,37.22
2018-08-07T13:52:36.956Z,37.23
2018-08-07T13:53:36.448Z,37.23
2018-08-07T13:55:33.420Z,37.24
2018-08-07T13:56:32.416Z,37.29
2018-08-07T13:58:28.886Z,37.14
2018-08-07T13:59:28.415Z,37.17
2018-08-07T14:01:24.355Z,37.24
2018-08-07T14:02:25.361Z,37.27
2018-08-07T14:04:20.436Z,37.23
2018-08-07T14:05:21.351Z,37.15
2018-08-07T14:07:16.417Z,37.00
2018-08-07T14:08:16.438Z,37.11
2018-08-07T14:10:12.396Z,37.11
2018-08-07T14:11:12.428Z,37.17
2018-08-07T14:13:07.387Z,37.26
2018-08-07T14:14:07.892Z,37.24
2018-08-07T14:16:03.882Z,37.24
2018-08-07T14:17:02.905Z,37.26
2018-08-07T14:18:57.888Z,37.24
2018-08-07T14:19:57.392Z,37.31
2018-08-07T14:21:53.376Z,37.41
2018-08-07T14:22:53.382Z,37.41
2018-08-07T14:24:51.355Z,37.46
2018-08-07T14:25:49.359Z,37.46
2018-08-07T14:27:45.338Z,37.69
2018-08-07T14:28:45.386Z,37.65
2018-08-07T14:30:41.326Z,37.64
2018-08-07T14:31:41.344Z,37.59
2018-08-07T14:33:37.315Z,37.56
2018-08-07T14:34:37.304Z,37.53
2018-08-07T14:36:30.906Z,37.48
2018-08-07T14:37:30.805Z,37.45
2018-08-07T14:39:27.776Z,37.51
2018-08-07T14:40:27.279Z,37.41
2018-08-07T14:42:23.764Z,37.46
2018-08-07T14:43:23.750Z,37.49
2018-08-07T14:45:17.734Z,37.62
2018-08-07T14:46:18.238Z,37.61
2018-08-07T14:48:13.741Z,37.79
2018-08-07T14:49:14.235Z,37.75
2018-08-07T14:51:11.215Z,37.72
2018-08-07T14:52:09.225Z,37.84
2018-08-07T14:54:06.253Z,37.84
2018-08-07T14:55:05.195Z,37.87
2018-08-07T14:57:01.192Z,37.90
2018-08-07T14:58:01.239Z,37.83
2018-08-07T14:59:57.151Z,37.80
2018-08-07T15:00:57.175Z,37.74
2018-08-07T15:02:51.674Z,37.83
2018-08-07T15:03:52.646Z,37.86
2018-08-07T15:05:47.615Z,37.83
2018-08-07T15:06:47.633Z,37.83
2018-08-07T15:08:44.602Z,37.76
2018-08-07T15:09:43.631Z,37.69
2018-08-07T15:11:39.588Z,37.81
2018-08-07T15:12:39.595Z,37.75
2018-08-07T15:14:35.624Z,37.62
2018-08-07T15:15:35.615Z,37.66
2018-08-07T15:17:31.620Z,37.71
2018-08-07T15:18:31.597Z,37.64
2018-08-07T15:20:27.666Z,37.53
2018-08-07T15:21:28.591Z,37.53
2018-08-07T15:23:24.594Z,37.64
2018-08-07T15:24:23.642Z,37.69
2018-08-07T15:26:20.118Z,37.71
2018-08-07T15:27:19.654Z,37.75
2018-08-07T15:29:13.114Z,37.80
2018-08-07T15:30:13.120Z,37.72
2018-08-07T15:32:09.138Z,37.75
2018-08-07T15:33:09.184Z,37.76
2018-08-07T15:35:05.151Z,37.75
2018-08-07T15:36:05.662Z,37.71
2018-08-07T15:38:01.147Z,37.61
2018-08-07T15:39:02.104Z,37.69
2018-08-07T15:40:57.091Z,37.59
2018-08-07T15:41:58.112Z,37.66
2018-08-07T15:43:54.089Z,37.74
2018-08-07T15:44:54.087Z,37.75
2018-08-07T15:46:48.137Z,37.75
2018-08-07T15:47:47.655Z,37.75
2018-08-07T15:49:43.647Z,37.83
2018-08-07T15:50:43.661Z,37.81
2018-08-07T15:52:40.144Z,37.88
2018-08-07T15:53:39.626Z,37.87
2018-08-07T15:55:35.557Z,37.90
2018-08-07T15:56:35.567Z,37.87
2018-08-07T15:58:32.556Z,37.91
2018-08-07T15:59:32.556Z,37.90
2018-08-07T16:01:29.549Z,37.69
2018-08-07T16:02:27.659Z,37.68
2018-08-07T16:04:23.079Z,37.64
2018-08-07T16:05:22.121Z,37.59
2018-08-07T16:07:18.100Z,37.45
2018-08-07T16:08:18.127Z,37.37
2018-08-07T16:10:13.107Z,37.45
2018-08-07T16:11:12.615Z,37.41
2018-08-07T16:13:08.567Z,37.41
2018-08-07T16:14:08.584Z,37.37
2018-08-07T16:16:04.561Z,37.27
2018-08-07T16:17:04.567Z,37.31
2018-08-07T16:19:01.049Z,37.42
2018-08-07T16:20:00.548Z,37.36
2018-08-07T16:21:58.522Z,37.37
2018-08-07T16:22:56.542Z,37.51
2018-08-07T16:24:52.539Z,37.48
2018-08-07T16:25:52.542Z,37.42
2018-08-07T16:27:48.594Z,37.39
2018-08-07T16:28:48.548Z,37.44
2018-08-07T16:30:45.520Z,37.39
2018-08-07T16:31:45.519Z,37.31
2018-08-07T16:33:40.533Z,37.00
2018-08-07T16:34:40.545Z,36.99
2018-08-07T16:36:36.531Z,36.84
2018-08-07T16:37:36.532Z,36.83
2018-08-07T16:39:34.604Z,36.80
2018-08-07T16:40:34.627Z,36.83
2018-08-07T16:42:32.553Z,36.97
2018-08-07T16:43:30.663Z,36.93
2018-08-07T16:45:27.201Z,36.99
2018-08-07T16:46:26.620Z,36.99
2018-08-07T16:48:23.102Z,36.96
2018-08-07T16:49:22.591Z,36.96
2018-08-07T16:51:17.608Z,36.83
2018-08-07T16:52:17.078Z,36.83
2018-08-07T16:54:13.564Z,36.88
2018-08-07T16:55:13.089Z,36.84
2018-08-07T16:57:09.067Z,36.77
2018-08-07T16:58:09.992Z,36.75
2018-08-07T17:00:05.527Z,36.74
2018-08-07T17:01:06.027Z,36.73
2018-08-07T17:02:59.507Z,36.62
2018-08-07T17:04:00.515Z,36.67
2018-08-07T17:05:56.006Z,36.59
2018-08-07T17:06:56.004Z,36.58
2018-08-07T17:08:51.487Z,36.67
2018-08-07T17:11:08.448Z,36.71
2018-08-07T17:12:07.446Z,36.75
2018-08-07T17:14:04.417Z,36.77
2018-08-07T17:15:03.440Z,36.68
2018-08-07T17:16:59.423Z,36.56
2018-08-07T17:18:00.416Z,36.44
2018-08-07T17:19:55.474Z,36.39
2018-08-07T17:20:55.435Z,36.34
2018-08-07T17:22:53.970Z,36.25
2018-08-07T17:23:53.430Z,36.28
2018-08-07T17:25:51.431Z,36.25
2018-08-07T17:26:51.906Z,36.19
2018-08-07T17:28:47.350Z,36.06
2018-08-07T17:29:47.886Z,36.06
2018-08-07T17:31:43.856Z,35.95
2018-08-07T17:32:43.404Z,36.01
2018-08-07T17:34:40.348Z,35.92
2018-08-07T17:35:39.357Z,35.83
2018-08-07T17:37:35.836Z,35.72
2018-08-07T17:38:35.330Z,35.80
2018-08-07T17:40:32.324Z,35.67
2018-08-07T17:41:31.334Z,35.71
2018-08-07T17:43:27.286Z,35.62
2018-08-07T17:44:27.315Z,35.53
2018-08-07T17:46:23.795Z,35.50
2018-08-07T17:47:23.285Z,35.46
2018-08-07T17:49:19.266Z,35.38
2018-08-07T17:50:20.759Z,35.31
2018-08-07T17:52:15.744Z,35.31
2018-08-07T17:53:15.297Z,35.38
2018-08-07T17:55:11.239Z,35.24
2018-08-07T17:56:11.246Z,35.21
2018-08-07T17:58:07.743Z,35.20
2018-08-07T17:59:08.225Z,35.16
2018-08-07T18:01:03.233Z,35.05
2018-08-07T18:04:01.901Z,35.02
2018-08-07T18:05:00.669Z,35.05
2018-08-07T18:06:54.173Z,34.97
2018-08-07T18:07:55.075Z,35.01
2018-08-07T18:09:49.630Z,34.89
2018-08-07T18:10:48.715Z,34.83
2018-08-07T18:12:44.833Z,34.87
2018-08-07T18:13:44.838Z,34.86
2018-08-07T18:15:41.863Z,34.74
2018-08-07T18:16:42.323Z,34.74
2018-08-07T18:18:39.716Z,34.63
2018-08-07T18:19:39.699Z,34.67
2018-08-07T18:21:38.208Z,34.59
2018-08-07T18:22:37.830Z,34.58
2018-08-07T18:24:41.445Z,34.51
2018-08-07T18:25:42.646Z,34.41
2018-08-07T18:27:37.990Z,34.39
2018-08-07T18:28:37.426Z,34.34
2018-08-07T18:30:35.867Z,34.21
2018-08-07T18:31:34.393Z,34.18
2018-08-07T18:33:49.902Z,34.15
2018-08-07T18:34:53.288Z,34.22
2018-08-07T18:36:48.403Z,34.08
2018-08-07T18:37:47.102Z,34.03
2018-08-07T18:39:43.102Z,33.99
2018-08-07T18:40:44.060Z,33.99
2018-08-07T18:42:52.445Z,33.80
2018-08-07T18:43:53.124Z,33.81
2018-08-07T18:46:02.855Z,33.66
2018-08-07T18:46:49.120Z,33.66
2018-08-07T18:48:43.142Z,33.66
2018-08-07T18:49:42.905Z,33.52
2018-08-07T18:52:03.135Z,33.41
2018-08-07T18:53:03.934Z,33.31
2018-08-07T18:55:14.258Z,33.24
2018-08-07T18:57:30.138Z,33.09
2018-08-07T18:58:29.159Z,33.09
2018-08-07T19:00:25.130Z,32.94
2018-08-07T19:01:24.557Z,32.96
2018-08-07T19:03:19.586Z,32.76
2018-08-07T19:04:19.613Z,32.83
2018-08-07T19:06:15.598Z,32.67
2018-08-07T19:07:15.615Z,32.68